Time;durP1;ratioP1;P1;durP2;ratioP2;P2;SDS_P1;SDS_P2;PMS_P1;PMS_P2;Temp;Humidity;BMP_temperature;BMP_pressure;BME280_temperature;BME280_humidity;BME280_pressure;Samples;Min_cycle;Max_cycle;Signal;HPM_P1;HPM_P2
2020/12/25 20:59:49;;;;;;;1.35;1.02;;;0.70;93.50;;;;;;6212589;22;1044434;-84
2020/12/25 21:02:18;;;;;;;1.90;1.10;;;0.80;93.30;;;;;;6230553;23;20022;-84
2020/12/25 21:04:43;;;;;;;1.40;1.10;;;0.80;93.00;;;;;;6204983;23;20060;-84
2020/12/25 21:07:15;;;;;;;1.50;0.90;;;0.80;92.90;;;;;;6230203;23;20016;-84
2020/12/25 21:09:44;;;;;;;0.90;0.90;;;0.80;93.20;;;;;;6230375;23;20094;-84
2020/12/25 21:12:13;;;;;;;3.30;0.90;;;0.90;93.20;;;;;;6256132;23;20011;-85
2020/12/25 21:14:42;;;;;;;1.05;0.93;;;0.90;93.50;;;;;;6227446;23;20004;-85
2020/12/25 21:17:09;;;;;;;1.30;1.20;;;0.90;93.10;;;;;;6202364;23;20008;-86
2020/12/25 21:19:37;;;;;;;1.83;1.48;;;0.90;92.60;;;;;;6227059;23;20087;-85
2020/12/25 21:22:14;;;;;;;2.08;1.42;;;1.00;92.50;;;;;;6227527;23;20008;-84
2020/12/25 21:24:42;;;;;;;1.83;1.30;;;1.00;92.30;;;;;;6228944;23;20004;-85
2020/12/25 21:27:08;;;;;;;1.45;1.35;;;1.00;92.20;;;;;;6226148;23;20054;-85
2020/12/25 21:29:34;;;;;;;2.95;1.55;;;1.00;92.10;;;;;;6228403;23;20004;-84
2020/12/25 21:32:04;;;;;;;1.42;1.20;;;1.00;91.60;;;;;;6253626;23;20000;-86
2020/12/25 21:34:30;;;;;;;1.02;0.90;;;1.00;91.10;;;;;;6225654;23;20320;-84
2020/12/25 21:36:56;;;;;;;1.20;0.85;;;1.00;90.70;;;;;;6251143;23;20050;-85
2020/12/25 21:39:30;;;;;;;1.23;0.85;;;1.00;90.40;;;;;;6254240;23;20071;-84
2020/12/25 21:41:59;;;;;;;1.00;0.80;;;1.00;90.10;;;;;;6254759;23;20004;-85
2020/12/25 21:44:26;;;;;;;1.58;0.75;;;1.00;90.40;;;;;;6227574;23;20432;-86
2020/12/25 21:46:53;;;;;;;1.48;1.10;;;1.10;90.50;;;;;;6257866;23;20007;-82
2020/12/25 21:49:19;;;;;;;2.15;1.27;;;1.10;88.80;;;;;;6246062;22;20004;-83
2020/12/25 21:51:44;;;;;;;1.45;1.33;;;1.00;88.70;;;;;;6236251;23;20074;-85
2020/12/25 21:54:11;;;;;;;2.17;1.40;;;1.10;88.80;;;;;;6247488;23;20004;-86
2020/12/25 21:56:37;;;;;;;1.35;1.25;;;1.00;89.30;;;;;;6221275;23;20004;-85
2020/12/25 21:59:07;;;;;;;2.45;1.40;;;1.00;89.80;;;;;;6224375;23;20399;-84
2020/12/25 22:01:35;;;;;;;1.67;1.40;;;1.00;90.00;;;;;;6231948;23;20103;-83
2020/12/25 22:04:00;;;;;;;4.00;2.58;;;1.10;90.10;;;;;;6227244;23;20004;-85
2020/12/25 22:06:31;;;;;;;2.50;1.98;;;1.10;89.70;;;;;;6254032;23;20309;-84
2020/12/25 22:08:58;;;;;;;1.85;1.23;;;1.10;89.30;;;;;;6251771;23;20011;-85
2020/12/25 22:11:24;;;;;;;2.70;1.63;;;1.10;88.90;;;;;;6224876;23;20000;-84
2020/12/25 22:13:51;;;;;;;1.83;1.05;;;1.00;88.00;;;;;;6227157;23;20000;-85
2020/12/25 22:16:26;;;;;;;1.38;1.00;;;1.00;88.20;;;;;;6226175;23;20004;-86
2020/12/25 22:18:53;;;;;;;2.13;1.10;;;0.90;88.50;;;;;;6253507;23;19996;-86
2020/12/25 22:21:30;;;;;;;1.85;1.42;;;1.00;88.30;;;;;;6229774;23;20459;-84
2020/12/25 22:23:56;;;;;;;1.10;0.95;;;1.00;86.90;;;;;;6250960;23;19996;-84
2020/12/25 22:26:22;;;;;;;2.20;1.17;;;0.90;86.80;;;;;;6253277;23;20015;-83
2020/12/25 22:28:48;;;;;;;2.03;1.25;;;0.90;86.10;;;;;;6252315;23;19996;-84
2020/12/25 22:31:29;;;;;;;1.50;1.27;;;0.80;85.90;;;;;;6225902;23;20000;-85
2020/12/25 22:33:55;;;;;;;3.85;1.40;;;0.80;84.90;;;;;;6254408;23;20000;-85
2020/12/25 22:36:23;;;;;;;1.40;1.00;;;0.80;84.40;;;;;;6227072;23;20000;-84
2020/12/25 22:38:50;;;;;;;1.55;0.50;;;0.80;84.60;;;;;;6228374;23;20008;-85
2020/12/25 22:41:20;;;;;;;1.02;0.75;;;0.80;83.10;;;;;;6229606;23;20007;-85
2020/12/25 22:43:48;;;;;;;0.80;0.75;;;0.80;81.90;;;;;;6262876;23;20000;-85
2020/12/25 22:46:14;;;;;;;1.65;0.70;;;0.80;81.00;;;;;;6234878;22;20015;-83
2020/12/25 22:48:40;;;;;;;0.40;0.40;;;0.80;79.20;;;;;;6271909;22;20014;-83
2020/12/25 22:51:10;;;;;;;0.55;0.52;;;0.80;78.50;;;;;;6264176;22;20007;-85
2020/12/25 22:53:36;;;;;;;0.47;0.45;;;0.80;78.10;;;;;;6255704;23;20484;-86
2020/12/25 22:56:01;;;;;;;0.63;0.55;;;0.80;77.60;;;;;;6229633;23;20004;-85
2020/12/25 22:58:27;;;;;;;2.30;0.77;;;0.80;77.70;;;;;;6256644;23;20014;-84
2020/12/25 23:00:53;;;;;;;2.22;0.70;;;0.80;77.30;;;;;;6257191;23;20004;-84
2020/12/25 23:03:19;;;;;;;0.80;0.60;;;0.80;78.40;;;;;;6264740;23;20075;-85
2020/12/25 23:05:44;;;;;;;0.70;0.70;;;0.80;79.00;;;;;;6232171;23;20007;-85
2020/12/25 23:08:10;;;;;;;0.95;0.60;;;0.80;78.90;;;;;;6259124;23;20054;-85
2020/12/25 23:10:36;;;;;;;0.30;0.30;;;0.90;77.70;;;;;;6230167;23;20000;-85
2020/12/25 23:13:01;;;;;;;0.73;0.65;;;0.80;76.70;;;;;;6249712;23;20004;-83
2020/12/25 23:15:28;;;;;;;0.93;0.50;;;0.80;77.00;;;;;;6222618;23;20012;-85
2020/12/25 23:17:53;;;;;;;0.40;0.40;;;0.80;77.90;;;;;;6256897;23;20006;-84
2020/12/25 23:20:19;;;;;;;0.65;0.30;;;0.80;78.20;;;;;;6234011;23;20008;-83
2020/12/25 23:22:45;;;;;;;0.52;0.30;;;0.80;77.80;;;;;;6271906;22;20006;-83
2020/12/25 23:25:11;;;;;;;0.32;0.30;;;0.80;76.50;;;;;;6239095;23;20008;-85
2020/12/25 23:27:37;;;;;;;0.32;0.32;;;0.80;76.30;;;;;;6255570;23;20000;-85
2020/12/25 23:30:04;;;;;;;0.20;0.20;;;0.80;76.40;;;;;;6229010;23;20036;-86
2020/12/25 23:32:29;;;;;;;0.77;0.35;;;0.80;76.10;;;;;;6229832;23;20016;-84
2020/12/25 23:34:55;;;;;;;0.40;0.25;;;0.80;75.50;;;;;;6258085;23;20509;-85
2020/12/25 23:37:21;;;;;;;0.35;0.35;;;0.80;75.70;;;;;;6265384;23;20018;-84
2020/12/25 23:39:46;;;;;;;1.35;0.30;;;0.80;75.00;;;;;;6238635;23;19993;-84
2020/12/25 23:42:12;;;;;;;0.10;0.10;;;0.90;75.10;;;;;;6259860;23;20006;-84
2020/12/25 23:44:38;;;;;;;1.17;0.30;;;0.90;75.50;;;;;;6254217;23;20007;-84
2020/12/25 23:47:03;;;;;;;0.20;0.20;;;0.90;75.80;;;;;;6257683;23;20154;-84
2020/12/25 23:49:29;;;;;;;2.35;0.30;;;0.90;76.00;;;;;;6259534;23;20000;-84
2020/12/25 23:51:57;;;;;;;0.35;0.35;;;0.90;75.40;;;;;;6259484;23;20389;-84
2020/12/25 23:54:22;;;;;;;0.35;0.30;;;0.90;75.30;;;;;;6229010;23;20027;-85
2020/12/25 23:56:48;;;;;;;1.33;0.28;;;0.90;75.00;;;;;;6256037;23;20005;-84
2020/12/25 23:59:14;;;;;;;1.20;0.30;;;0.90;74.80;;;;;;6230738;23;20019;-84
